createdAt,value
2023-02-09T00:01:24.285Z,10.37
2023-02-09T00:03:51.942Z,13.53
2023-02-09T00:06:22.117Z,11.67
2023-02-09T00:08:49.728Z,13.27
2023-02-09T00:11:46.583Z,12.37
2023-02-09T00:14:16.464Z,11.90
2023-02-09T00:16:43.782Z,11.20
2023-02-09T00:21:58.125Z,12.20
2023-02-09T00:24:25.818Z,13.30
2023-02-09T00:26:53.249Z,14.40
2023-02-09T00:29:24.109Z,11.80
2023-02-09T00:31:52.139Z,10.80
2023-02-09T00:34:19.823Z,11.73
2023-02-09T00:36:47.556Z,9.90
2023-02-09T00:39:14.923Z,11.87
2023-02-09T00:42:00.995Z,12.10
2023-02-09T00:44:28.328Z,11.20
2023-02-09T00:46:56.066Z,10.93
2023-02-09T00:49:23.589Z,13.40
2023-02-09T00:51:51.110Z,11.30
2023-02-09T00:54:18.517Z,11.37
2023-02-09T00:56:46.158Z,11.67
2023-02-09T00:59:13.612Z,12.37
2023-02-09T01:01:40.955Z,11.30
2023-02-09T01:04:08.610Z,11.83
2023-02-09T01:06:35.892Z,12.30
2023-02-09T01:09:03.424Z,12.03
2023-02-09T01:11:30.894Z,12.30
2023-02-09T01:13:59.817Z,13.83
2023-02-09T01:16:31.703Z,11.40
2023-02-09T01:19:01.645Z,12.03
2023-02-09T01:21:29.338Z,13.23
2023-02-09T01:23:56.810Z,12.80
2023-02-09T01:26:24.258Z,10.33
2023-02-09T01:28:53.572Z,14.30
2023-02-09T01:31:31.727Z,11.00
2023-02-09T01:34:02.359Z,11.37
2023-02-09T01:36:30.804Z,10.80
2023-02-09T01:39:00.559Z,12.53
2023-02-09T01:41:28.447Z,11.30
2023-02-09T01:44:30.085Z,12.67
2023-02-09T01:46:57.348Z,10.53
2023-02-09T01:49:27.264Z,11.77
2023-02-09T01:51:58.378Z,11.50
2023-02-09T01:54:49.393Z,11.40
2023-02-09T01:57:24.344Z,11.23
2023-02-09T01:59:58.674Z,11.17
2023-02-09T02:02:26.261Z,11.10
2023-02-09T02:04:53.655Z,10.47
2023-02-09T02:07:32.559Z,10.60
2023-02-09T02:10:01.235Z,10.93
2023-02-09T02:12:28.600Z,11.17
2023-02-09T02:14:55.909Z,9.67
2023-02-09T02:17:37.682Z,8.87
2023-02-09T02:20:04.935Z,10.77
2023-02-09T02:22:48.595Z,9.90
2023-02-09T02:25:38.449Z,9.00
2023-02-09T02:28:42.698Z,9.70
2023-02-09T02:31:57.195Z,11.57
2023-02-09T02:34:24.490Z,8.90
2023-02-09T02:36:55.481Z,9.70
2023-02-09T02:39:51.161Z,8.40
2023-02-09T02:42:44.557Z,10.10
2023-02-09T02:45:31.312Z,7.80
2023-02-09T02:48:24.377Z,8.20
2023-02-09T02:51:29.970Z,9.40
2023-02-09T02:54:00.512Z,9.97
2023-02-09T02:56:40.226Z,8.83
2023-02-09T02:59:12.352Z,8.27
2023-02-09T03:01:56.283Z,9.53
2023-02-09T03:04:25.072Z,9.37
2023-02-09T03:06:52.508Z,9.67
2023-02-09T03:09:19.945Z,9.70
2023-02-09T03:11:52.237Z,8.50
2023-02-09T03:15:08.595Z,8.30
2023-02-09T03:17:44.731Z,8.20
2023-02-09T03:20:25.446Z,6.77
2023-02-09T03:23:00.294Z,10.70
2023-02-09T03:25:34.658Z,8.90
2023-02-09T03:28:08.457Z,9.87
2023-02-09T03:30:37.052Z,8.87
2023-02-09T03:33:05.472Z,8.87
2023-02-09T03:35:39.490Z,8.57
2023-02-09T03:38:07.198Z,9.27
2023-02-09T03:40:35.104Z,8.80
2023-02-09T03:43:02.798Z,11.00
2023-02-09T03:45:30.123Z,8.33
2023-02-09T03:47:57.435Z,8.03
2023-02-09T03:50:24.791Z,7.83
2023-02-09T03:52:52.046Z,9.07
2023-02-09T03:55:19.389Z,7.80
2023-02-09T03:57:46.674Z,9.67
2023-02-09T04:00:14.665Z,7.07
2023-02-09T04:02:42.284Z,8.97
2023-02-09T04:05:10.251Z,9.17
2023-02-09T04:07:37.997Z,8.17
2023-02-09T04:10:06.325Z,9.20
2023-02-09T04:12:33.604Z,9.23
2023-02-09T04:15:00.894Z,8.83
2023-02-09T04:17:28.276Z,10.47
2023-02-09T04:19:56.633Z,9.60
2023-02-09T04:22:23.935Z,8.80
2023-02-09T04:24:51.180Z,9.07
2023-02-09T04:27:18.498Z,9.87
2023-02-09T04:29:45.785Z,9.17
2023-02-09T04:32:13.100Z,10.10
2023-02-09T04:34:40.438Z,8.20
2023-02-09T04:37:07.689Z,8.57
2023-02-09T04:39:34.992Z,7.07
2023-02-09T04:42:02.242Z,9.87
2023-02-09T04:44:29.192Z,7.50
2023-02-09T04:46:56.468Z,7.23
2023-02-09T04:49:23.785Z,7.67
2023-02-09T04:51:51.170Z,6.00
2023-02-09T04:54:18.485Z,6.80
2023-02-09T04:56:45.735Z,4.70
2023-02-09T04:59:31.515Z,5.77
2023-02-09T05:01:58.800Z,6.50
2023-02-09T05:04:26.069Z,6.83
2023-02-09T05:06:53.351Z,8.13
2023-02-09T05:09:20.600Z,9.70
2023-02-09T05:11:48.063Z,8.07
2023-02-09T05:14:15.646Z,9.50
2023-02-09T05:16:43.040Z,9.00
2023-02-09T05:19:10.469Z,8.40
2023-02-09T05:21:37.756Z,9.60
2023-02-09T05:24:05.434Z,27.20
2023-02-09T05:26:32.734Z,24.97
2023-02-09T05:28:59.993Z,34.23
2023-02-09T05:31:27.708Z,29.77
2023-02-09T05:33:55.221Z,12.00
2023-02-09T05:36:22.610Z,8.73
2023-02-09T05:38:49.908Z,9.77
2023-02-09T05:41:37.209Z,9.10
2023-02-09T05:44:05.484Z,6.20
2023-02-09T05:46:32.792Z,6.97
2023-02-09T05:49:00.564Z,8.63
2023-02-09T05:51:27.851Z,10.20
2023-02-09T05:53:56.353Z,10.07
2023-02-09T05:56:23.690Z,8.37
2023-02-09T05:58:51.022Z,9.80
2023-02-09T06:01:18.356Z,9.40
2023-02-09T06:03:45.669Z,8.23
2023-02-09T06:06:13.049Z,7.70
2023-02-09T06:08:40.424Z,9.87
2023-02-09T06:11:07.808Z,10.73
2023-02-09T06:13:35.066Z,8.83
2023-02-09T06:16:02.383Z,10.30
2023-02-09T06:18:29.764Z,8.83
2023-02-09T06:20:57.123Z,12.20
2023-02-09T06:23:23.985Z,9.10
2023-02-09T06:25:53.293Z,10.43
2023-02-09T06:28:20.886Z,10.57
2023-02-09T06:30:53.023Z,10.87
2023-02-09T06:33:20.904Z,10.60
2023-02-09T06:35:48.852Z,9.87
2023-02-09T06:38:17.169Z,9.87
2023-02-09T06:40:46.063Z,11.93
2023-02-09T06:43:13.958Z,9.70
2023-02-09T06:45:41.623Z,9.53
2023-02-09T06:48:09.844Z,10.10
2023-02-09T06:50:38.554Z,11.93
2023-02-09T06:53:06.492Z,11.23
2023-02-09T06:55:34.539Z,9.47
2023-02-09T06:58:01.914Z,8.40
2023-02-09T07:00:30.998Z,10.20
2023-02-09T07:02:59.483Z,10.00
2023-02-09T07:05:26.821Z,9.90
2023-02-09T07:07:55.780Z,10.07
2023-02-09T07:10:23.187Z,8.60
2023-02-09T07:12:50.512Z,10.90
2023-02-09T07:15:17.862Z,10.70
2023-02-09T07:17:45.132Z,12.47
2023-02-09T07:20:13.003Z,10.90
2023-02-09T07:22:39.907Z,11.13
2023-02-09T07:25:07.372Z,10.30
2023-02-09T07:27:34.691Z,8.93
2023-02-09T07:30:01.965Z,9.90
2023-02-09T07:32:29.346Z,9.97
2023-02-09T07:34:56.597Z,10.33
2023-02-09T07:37:23.873Z,8.60
2023-02-09T07:39:51.212Z,8.93
2023-02-09T07:42:18.500Z,17.80
2023-02-09T07:44:45.825Z,36.70
2023-02-09T07:47:15.307Z,9.17
2023-02-09T07:49:42.710Z,10.43
2023-02-09T07:52:10.058Z,8.60
2023-02-09T07:54:37.340Z,6.10
2023-02-09T07:57:04.591Z,8.97
2023-02-09T07:59:31.935Z,9.60
2023-02-09T08:01:59.384Z,8.30
2023-02-09T08:04:26.663Z,8.93
2023-02-09T08:06:54.050Z,7.23
2023-02-09T08:09:21.372Z,8.73
2023-02-09T08:11:50.325Z,8.53
2023-02-09T08:14:28.759Z,8.27
2023-02-09T08:17:20.249Z,8.53
2023-02-09T08:19:59.188Z,7.70
2023-02-09T08:22:30.442Z,10.10
2023-02-09T08:24:59.930Z,9.20
2023-02-09T08:27:27.324Z,8.83
2023-02-09T08:29:54.699Z,9.40
2023-02-09T08:32:22.394Z,8.00
2023-02-09T08:34:49.286Z,9.03
2023-02-09T08:37:16.185Z,7.37
2023-02-09T08:39:44.217Z,8.47
2023-02-09T08:42:11.542Z,8.83
2023-02-09T08:44:38.511Z,10.33
2023-02-09T08:47:05.870Z,18.47
2023-02-09T08:49:33.274Z,8.77
2023-02-09T08:52:00.179Z,8.33
2023-02-09T08:54:27.498Z,12.10
2023-02-09T08:56:54.606Z,10.77
2023-02-09T08:59:22.104Z,8.77
2023-02-09T09:01:49.030Z,9.20
2023-02-09T09:04:17.108Z,8.80
2023-02-09T09:06:44.393Z,9.30
2023-02-09T09:09:11.366Z,9.60
2023-02-09T09:11:38.341Z,9.20
2023-02-09T09:14:05.219Z,9.67
2023-02-09T09:16:32.223Z,11.60
2023-02-09T09:18:59.335Z,11.27
2023-02-09T09:21:26.278Z,10.30
2023-02-09T09:23:53.278Z,10.60
2023-02-09T09:26:20.611Z,9.07
2023-02-09T09:28:51.104Z,10.40
2023-02-09T09:31:19.747Z,9.93
2023-02-09T09:33:47.825Z,9.30
2023-02-09T09:36:15.206Z,9.27
2023-02-09T09:38:43.016Z,10.30
2023-02-09T09:41:38.066Z,10.40
2023-02-09T09:44:38.716Z,10.40
2023-02-09T09:47:16.145Z,10.83
2023-02-09T09:49:43.274Z,10.40
2023-02-09T09:52:38.853Z,11.43
2023-02-09T09:55:19.792Z,11.20
2023-02-09T09:57:46.803Z,11.53
2023-02-09T10:00:35.232Z,12.47
2023-02-09T10:03:03.193Z,11.30
2023-02-09T10:05:39.096Z,11.77
2023-02-09T10:08:34.634Z,11.37
2023-02-09T10:11:13.888Z,10.40
2023-02-09T10:13:48.240Z,11.73
2023-02-09T10:16:34.386Z,10.70
2023-02-09T10:19:05.428Z,11.83
2023-02-09T10:21:36.261Z,13.13
2023-02-09T10:24:17.012Z,14.43
2023-02-09T10:26:44.190Z,37.90
2023-02-09T10:29:10.974Z,42.17
2023-02-09T10:31:43.038Z,25.87
2023-02-09T10:34:18.263Z,28.87
2023-02-09T10:37:14.752Z,11.43
2023-02-09T10:39:42.316Z,11.23
2023-02-09T10:42:20.572Z,11.97
2023-02-09T10:44:54.310Z,11.17
2023-02-09T10:47:21.206Z,11.40
2023-02-09T10:50:12.879Z,12.77
2023-02-09T10:52:59.011Z,12.37
2023-02-09T10:55:37.056Z,13.17
2023-02-09T10:58:20.516Z,14.27
2023-02-09T11:01:12.700Z,13.50
2023-02-09T11:04:07.993Z,13.70
2023-02-09T11:06:58.802Z,15.93
2023-02-09T11:09:31.850Z,19.10
2023-02-09T11:11:58.868Z,15.37
2023-02-09T11:14:25.949Z,17.43
2023-02-09T11:17:13.521Z,30.70
2023-02-09T11:20:23.964Z,16.83
2023-02-09T11:23:06.703Z,14.00
2023-02-09T11:25:49.717Z,14.90
2023-02-09T11:28:27.020Z,13.73
2023-02-09T11:31:37.329Z,13.00
2023-02-09T11:34:26.301Z,12.87
2023-02-09T11:37:28.229Z,21.50
2023-02-09T11:40:07.074Z,12.63
2023-02-09T11:42:46.945Z,13.83
2023-02-09T11:45:22.490Z,12.10
2023-02-09T11:47:59.235Z,11.20
2023-02-09T11:51:09.321Z,13.00
2023-02-09T11:54:03.465Z,15.17
2023-02-09T11:56:36.929Z,16.87
2023-02-09T11:59:34.431Z,33.27
2023-02-09T12:02:41.522Z,23.37
2023-02-09T12:05:12.778Z,16.97
2023-02-09T12:08:23.830Z,15.70
2023-02-09T12:11:19.882Z,13.20
2023-02-09T12:13:55.553Z,11.50
2023-02-09T12:16:29.500Z,10.90
2023-02-09T12:18:56.967Z,10.10
2023-02-09T12:21:34.514Z,12.07
2023-02-09T12:24:02.009Z,11.07
2023-02-09T12:26:43.803Z,9.30
2023-02-09T12:29:35.418Z,7.60
2023-02-09T12:32:06.031Z,8.63
2023-02-09T12:34:49.603Z,9.03
2023-02-09T12:37:28.036Z,8.67
2023-02-09T12:40:22.540Z,9.60
2023-02-09T12:42:52.436Z,9.50
2023-02-09T12:45:58.777Z,7.70
2023-02-09T12:48:25.751Z,5.60
2023-02-09T12:50:55.475Z,6.97
2023-02-09T12:53:22.390Z,6.53
2023-02-09T12:56:03.842Z,6.03
2023-02-09T12:58:34.438Z,6.47
2023-02-09T13:01:01.427Z,5.30
2023-02-09T13:03:29.747Z,6.10
2023-02-09T13:06:00.393Z,7.10
2023-02-09T13:08:37.079Z,7.07
2023-02-09T13:11:19.127Z,5.73
2023-02-09T13:14:07.726Z,5.97
2023-02-09T13:16:44.568Z,11.17
2023-02-09T13:19:52.289Z,9.67
2023-02-09T13:22:57.655Z,6.97
2023-02-09T13:25:33.332Z,6.00
2023-02-09T13:28:26.863Z,6.30
2023-02-09T13:30:54.121Z,6.30
2023-02-09T13:33:57.779Z,6.10
2023-02-09T13:36:41.282Z,6.63
2023-02-09T13:39:22.410Z,7.50
2023-02-09T13:41:50.030Z,7.17
2023-02-09T13:44:27.409Z,8.20
2023-02-09T13:46:58.737Z,6.43
2023-02-09T13:49:28.498Z,9.67
2023-02-09T13:52:19.887Z,6.80
2023-02-09T13:54:46.922Z,6.53
2023-02-09T13:57:36.555Z,6.93
2023-02-09T14:00:41.763Z,6.00
2023-02-09T14:03:26.103Z,6.23
2023-02-09T14:06:09.198Z,6.00
2023-02-09T14:08:39.255Z,5.40
2023-02-09T14:11:42.238Z,6.27
2023-02-09T14:14:23.918Z,7.37
2023-02-09T14:17:25.522Z,6.43
2023-02-09T14:19:55.027Z,6.57
2023-02-09T14:22:38.377Z,6.77
2023-02-09T14:25:14.265Z,7.17
2023-02-09T14:27:46.265Z,6.50
2023-02-09T14:30:32.727Z,7.23
2023-02-09T14:33:03.437Z,7.57
2023-02-09T14:35:56.539Z,5.50
2023-02-09T14:38:43.169Z,6.50
2023-02-09T14:41:33.177Z,8.10
2023-02-09T14:44:21.447Z,8.73
2023-02-09T14:46:57.732Z,7.60
2023-02-09T14:49:26.082Z,8.30
2023-02-09T14:52:15.059Z,10.93
2023-02-09T14:54:49.188Z,8.23
2023-02-09T14:57:16.189Z,7.70
2023-02-09T14:59:43.063Z,6.70
2023-02-09T15:02:19.201Z,7.57
2023-02-09T15:04:47.003Z,7.90
2023-02-09T15:07:21.669Z,8.77
2023-02-09T15:09:49.489Z,8.47
2023-02-09T15:12:26.529Z,7.73
2023-02-09T15:15:00.784Z,9.37
2023-02-09T15:17:30.195Z,8.23
2023-02-09T15:19:58.569Z,7.70
2023-02-09T15:22:25.905Z,8.43
2023-02-09T15:24:54.588Z,9.67
2023-02-09T15:27:51.304Z,10.90
2023-02-09T15:30:33.436Z,12.23
2023-02-09T15:33:01.064Z,15.20
2023-02-09T15:35:29.460Z,15.77
2023-02-09T15:37:59.663Z,16.40
2023-02-09T15:40:57.089Z,14.77
2023-02-09T15:43:42.889Z,15.97
2023-02-09T15:46:22.286Z,14.73
2023-02-09T15:48:49.266Z,14.40
2023-02-09T15:51:17.903Z,15.20
2023-02-09T15:53:45.938Z,15.63
2023-02-09T15:56:14.608Z,15.40
2023-02-09T15:58:44.915Z,15.83
2023-02-09T16:01:16.714Z,20.40
2023-02-09T16:03:44.033Z,23.90
2023-02-09T16:06:20.860Z,22.23
2023-02-09T16:08:48.984Z,23.37
2023-02-09T16:11:36.352Z,24.10
2023-02-09T16:14:05.768Z,23.97
2023-02-09T16:16:33.232Z,24.97
2023-02-09T16:19:00.715Z,25.97
2023-02-09T16:21:31.924Z,27.53
2023-02-09T16:24:03.082Z,26.07
2023-02-09T16:26:32.964Z,17.80
2023-02-09T16:29:00.069Z,22.80
2023-02-09T16:31:27.490Z,26.23
2023-02-09T16:33:54.458Z,26.43
2023-02-09T16:36:24.905Z,23.07
2023-02-09T16:38:51.801Z,22.00
2023-02-09T16:41:37.970Z,23.70
2023-02-09T16:44:25.381Z,25.23
2023-02-09T16:46:55.570Z,14.97
2023-02-09T16:49:38.503Z,19.80
2023-02-09T16:52:20.104Z,21.27
2023-02-09T16:54:57.640Z,20.57
2023-02-09T16:57:26.260Z,17.00
2023-02-09T16:59:54.213Z,13.57
2023-02-09T17:02:59.913Z,16.13
2023-02-09T17:05:31.312Z,17.53
2023-02-09T17:08:33.297Z,18.90
2023-02-09T17:11:02.562Z,17.47
2023-02-09T17:13:30.939Z,21.13
2023-02-09T17:16:06.861Z,18.83
2023-02-09T17:18:42.302Z,17.53
2023-02-09T17:21:21.655Z,15.67
2023-02-09T17:23:48.911Z,18.93
2023-02-09T17:26:15.791Z,17.00
2023-02-09T17:28:43.389Z,17.47
2023-02-09T17:31:18.162Z,16.20
2023-02-09T17:33:48.993Z,17.90
2023-02-09T17:36:27.089Z,16.67
2023-02-09T17:38:57.618Z,16.50
2023-02-09T17:41:37.077Z,17.20
2023-02-09T17:44:29.033Z,16.27
2023-02-09T17:47:03.423Z,15.63
2023-02-09T17:49:30.572Z,15.03
2023-02-09T17:51:58.228Z,14.10
2023-02-09T17:54:25.701Z,12.10
2023-02-09T17:56:53.194Z,13.10
2023-02-09T17:59:21.351Z,12.00
2023-02-09T18:01:51.806Z,13.20
2023-02-09T18:04:26.709Z,13.73
2023-02-09T18:06:56.038Z,14.43
2023-02-09T18:09:24.929Z,15.07
2023-02-09T18:11:52.007Z,14.37
2023-02-09T18:14:21.231Z,12.80
2023-02-09T18:16:49.200Z,14.27
2023-02-09T18:19:16.871Z,14.00
2023-02-09T18:21:53.744Z,14.17
2023-02-09T18:24:23.549Z,13.10
2023-02-09T18:26:53.604Z,13.90
2023-02-09T18:29:23.615Z,11.63
2023-02-09T18:31:51.621Z,13.77
2023-02-09T18:34:18.948Z,15.20
2023-02-09T18:36:45.880Z,13.00
2023-02-09T18:39:15.939Z,12.97
2023-02-09T18:41:45.062Z,15.17
2023-02-09T18:44:12.603Z,11.07
2023-02-09T18:46:39.617Z,11.33
2023-02-09T18:49:06.949Z,11.23
2023-02-09T18:51:34.246Z,12.37
2023-02-09T18:54:01.119Z,13.10
2023-02-09T18:56:28.564Z,12.77
2023-02-09T18:58:55.614Z,13.13
2023-02-09T19:01:24.049Z,12.87
2023-02-09T19:03:54.582Z,13.90
2023-02-09T19:06:22.883Z,12.93
2023-02-09T19:08:50.661Z,16.90
2023-02-09T19:11:21.213Z,15.40
2023-02-09T19:14:08.728Z,16.70
2023-02-09T19:16:37.034Z,15.20
2023-02-09T19:19:04.536Z,15.47
2023-02-09T19:21:32.315Z,17.63
2023-02-09T19:23:59.639Z,18.30
2023-02-09T19:26:27.034Z,18.40
2023-02-09T19:28:57.029Z,18.43
2023-02-09T19:31:24.633Z,15.77
2023-02-09T19:33:56.551Z,16.60
2023-02-09T19:36:25.103Z,16.17
2023-02-09T19:38:52.425Z,15.83
2023-02-09T19:41:23.147Z,16.33
2023-02-09T19:43:55.602Z,16.97
2023-02-09T19:46:23.278Z,17.27
2023-02-09T19:48:50.661Z,17.77
2023-02-09T19:51:17.995Z,15.40
2023-02-09T19:53:45.381Z,15.13
2023-02-09T19:56:17.945Z,15.30
2023-02-09T19:58:45.588Z,13.17
2023-02-09T20:01:13.302Z,13.00
2023-02-09T20:03:40.673Z,13.90
2023-02-09T20:06:10.286Z,12.10
2023-02-09T20:08:38.308Z,12.30
2023-02-09T20:11:08.087Z,12.90
2023-02-09T20:13:35.542Z,13.63
2023-02-09T20:16:11.350Z,11.63
2023-02-09T20:18:38.723Z,12.23
2023-02-09T20:21:09.653Z,14.00
2023-02-09T20:23:37.771Z,11.40
2023-02-09T20:26:22.660Z,14.73
2023-02-09T20:28:50.536Z,15.10
2023-02-09T20:31:24.009Z,13.83
2023-02-09T20:33:51.593Z,13.40
2023-02-09T20:36:19.525Z,15.63
2023-02-09T20:38:47.377Z,14.33
2023-02-09T20:41:17.452Z,15.00
2023-02-09T20:44:03.694Z,16.60
2023-02-09T20:46:51.572Z,17.33
2023-02-09T20:49:19.043Z,15.50
2023-02-09T20:51:46.670Z,15.47
2023-02-09T20:54:14.659Z,14.37
2023-02-09T20:56:42.344Z,14.23
2023-02-09T20:59:09.785Z,13.93
2023-02-09T21:01:38.376Z,16.23
2023-02-09T21:04:07.294Z,13.87
2023-02-09T21:06:37.007Z,30.40
2023-02-09T21:09:10.522Z,23.17
2023-02-09T21:11:37.987Z,15.87
2023-02-09T21:14:05.305Z,13.77
2023-02-09T21:16:33.136Z,13.77
2023-02-09T21:19:01.031Z,13.80
2023-02-09T21:21:29.430Z,10.00
2023-02-09T21:23:56.908Z,12.10
2023-02-09T21:26:24.521Z,11.50
2023-02-09T21:28:56.115Z,11.10
2023-02-09T21:31:27.356Z,10.80
2023-02-09T21:33:54.894Z,13.30
2023-02-09T21:36:22.488Z,13.20
2023-02-09T21:38:49.968Z,12.10
2023-02-09T21:41:39.181Z,11.93
2023-02-09T21:44:07.018Z,15.30
2023-02-09T21:46:34.612Z,11.10
2023-02-09T21:49:02.284Z,14.03
2023-02-09T21:51:29.608Z,11.97
2023-02-09T21:53:57.204Z,13.50
2023-02-09T21:56:24.559Z,14.53
2023-02-09T21:58:51.852Z,14.03
2023-02-09T22:01:19.355Z,14.37
2023-02-09T22:03:58.429Z,14.77
2023-02-09T22:06:26.765Z,14.40
2023-02-09T22:08:54.426Z,13.60
2023-02-09T22:11:21.886Z,12.07
2023-02-09T22:13:49.240Z,13.60
2023-02-09T22:16:20.151Z,13.90
2023-02-09T22:18:47.550Z,12.53
2023-02-09T22:21:14.873Z,12.33
2023-02-09T22:23:42.180Z,14.73
2023-02-09T22:26:10.257Z,13.40
2023-02-09T22:28:37.596Z,16.77
2023-02-09T22:31:17.557Z,18.00
2023-02-09T22:33:45.441Z,17.43
2023-02-09T22:36:18.129Z,16.83
2023-02-09T22:38:45.931Z,16.03
2023-02-09T22:41:22.703Z,15.63
2023-02-09T22:44:12.398Z,16.23
2023-02-09T22:46:41.173Z,17.50
2023-02-09T22:49:17.380Z,18.07
2023-02-09T22:51:46.725Z,20.07
2023-02-09T22:54:20.638Z,19.70
2023-02-09T22:56:48.004Z,17.40
2023-02-09T22:59:15.583Z,15.00
2023-02-09T23:01:43.545Z,13.23
2023-02-09T23:04:11.197Z,13.33
2023-02-09T23:06:38.540Z,12.90
2023-02-09T23:09:07.968Z,13.13
2023-02-09T23:11:36.516Z,12.33
2023-02-09T23:14:09.756Z,13.60
2023-02-09T23:16:39.736Z,13.60
2023-02-09T23:19:09.445Z,12.60
2023-02-09T23:21:39.739Z,13.83
2023-02-09T23:24:07.971Z,13.30
2023-02-09T23:26:35.934Z,12.90
2023-02-09T23:29:08.802Z,14.03
2023-02-09T23:31:36.514Z,13.13
2023-02-09T23:34:04.076Z,16.83
2023-02-09T23:36:33.766Z,16.00
2023-02-09T23:39:06.095Z,15.03
2023-02-09T23:41:34.481Z,13.80
2023-02-09T23:44:02.815Z,15.83
2023-02-09T23:46:30.307Z,15.17
2023-02-09T23:48:57.929Z,15.93
2023-02-09T23:51:30.206Z,16.60
2023-02-09T23:54:01.105Z,17.27
2023-02-09T23:56:29.917Z,16.40
2023-02-09T23:58:57.426Z,17.27
